KHSB/HSB METAR and TAF weather

Enter ICAO airport designator
Station Type Date Time Source
KHSB METAR 2018/12/13 08:15 UTC NOAA

KHSB 130815Z AUTO 20005KT 10SM BKN018 OVC030 09/05 A3002 RMK AO2 T00860054


Station Type Date Time Source
KHSB Decoded METAR 2018/12/13 08:15 UTC NOAA

Harrisburg, Harrisburg-Raleigh Airport, IL, United States (KHSB) 37-48-41N 088-32-57W
Dec 13, 2018 - 03:15 AM EST / 2018.12.13 0815 UTC
Wind: from the SSW (200 degrees) at 6 MPH (5 KT):0
Visibility: 10 mile(s):0
Sky conditions: overcast
Temperature: 47.5 F (8.6 C)
Dew Point: 41.7 F (5.4 C)
Relative Humidity: 80%
Pressure (altimeter): 30.02 in. Hg (1016 hPa)
ob: KHSB 130815Z AUTO 20005KT 10SM BKN018 OVC030 09/05 A3002 RMK AO2 T00860054
cycle: 8

Station Type Date Time Source
KHSB TAF UTC NOAA

Error!


Example: see airport list